sensor_id;sensor_type;location;lat;lon;timestamp;P1;durP1;ratioP1;P2;durP2;ratioP2
4424;SDS011;2225;53.568;13.266;2022-10-16T00:01:28;7.70;;;2.43;;
4424;SDS011;2225;53.568;13.266;2022-10-16T00:03:57;7.67;;;2.73;;
4424;SDS011;2225;53.568;13.266;2022-10-16T00:06:26;7.27;;;3.27;;
4424;SDS011;2225;53.568;13.266;2022-10-16T00:08:57;7.63;;;3.20;;
4424;SDS011;2225;53.568;13.266;2022-10-16T00:11:29;10.80;;;3.00;;
4424;SDS011;2225;53.568;13.266;2022-10-16T00:14:00;5.60;;;2.37;;
4424;SDS011;2225;53.568;13.266;2022-10-16T00:16:28;11.67;;;3.40;;
4424;SDS011;2225;53.568;13.266;2022-10-16T00:18:56;5.80;;;3.03;;
4424;SDS011;2225;53.568;13.266;2022-10-16T00:21:24;9.30;;;2.93;;
4424;SDS011;2225;53.568;13.266;2022-10-16T00:23:55;5.80;;;2.80;;
4424;SDS011;2225;53.568;13.266;2022-10-16T00:26:29;5.23;;;2.47;;
4424;SDS011;2225;53.568;13.266;2022-10-16T00:28:59;6.60;;;2.93;;
4424;SDS011;2225;53.568;13.266;2022-10-16T00:31:26;5.07;;;2.40;;
4424;SDS011;2225;53.568;13.266;2022-10-16T00:33:53;6.00;;;3.23;;
4424;SDS011;2225;53.568;13.266;2022-10-16T00:36:21;5.13;;;2.37;;
4424;SDS011;2225;53.568;13.266;2022-10-16T00:38:51;7.87;;;3.00;;
4424;SDS011;2225;53.568;13.266;2022-10-16T00:41:21;5.70;;;2.40;;
4424;SDS011;2225;53.568;13.266;2022-10-16T00:43:51;7.40;;;2.40;;
4424;SDS011;2225;53.568;13.266;2022-10-16T00:46:24;8.20;;;2.50;;
4424;SDS011;2225;53.568;13.266;2022-10-16T00:49:06;9.43;;;2.70;;
4424;SDS011;2225;53.568;13.266;2022-10-16T00:51:38;4.90;;;2.60;;
4424;SDS011;2225;53.568;13.266;2022-10-16T00:54:09;6.03;;;2.40;;
4424;SDS011;2225;53.568;13.266;2022-10-16T00:56:41;5.20;;;2.53;;
4424;SDS011;2225;53.568;13.266;2022-10-16T00:59:11;5.13;;;2.40;;
4424;SDS011;2225;53.568;13.266;2022-10-16T01:01:46;4.80;;;2.30;;
4424;SDS011;2225;53.568;13.266;2022-10-16T01:04:13;13.30;;;2.27;;
4424;SDS011;2225;53.568;13.266;2022-10-16T01:09:19;9.63;;;2.47;;
4424;SDS011;2225;53.568;13.266;2022-10-16T01:11:57;7.43;;;2.73;;
4424;SDS011;2225;53.568;13.266;2022-10-16T01:14:38;7.00;;;2.70;;
4424;SDS011;2225;53.568;13.266;2022-10-16T01:17:31;5.60;;;2.40;;
4424;SDS011;2225;53.568;13.266;2022-10-16T01:20:10;4.93;;;2.23;;
4424;SDS011;2225;53.568;13.266;2022-10-16T01:22:49;5.57;;;2.50;;
4424;SDS011;2225;53.568;13.266;2022-10-16T01:28:55;5.07;;;2.10;;
4424;SDS011;2225;53.568;13.266;2022-10-16T01:31:35;5.83;;;2.10;;
4424;SDS011;2225;53.568;13.266;2022-10-16T01:34:08;6.13;;;2.57;;
4424;SDS011;2225;53.568;13.266;2022-10-16T01:36:56;4.87;;;2.13;;
4424;SDS011;2225;53.568;13.266;2022-10-16T01:39:31;7.40;;;2.60;;
4424;SDS011;2225;53.568;13.266;2022-10-16T01:42:07;8.90;;;2.60;;
4424;SDS011;2225;53.568;13.266;2022-10-16T01:44:41;4.80;;;2.50;;
4424;SDS011;2225;53.568;13.266;2022-10-16T01:47:09;5.57;;;2.57;;
4424;SDS011;2225;53.568;13.266;2022-10-16T01:49:39;5.70;;;2.80;;
4424;SDS011;2225;53.568;13.266;2022-10-16T01:52:10;4.97;;;2.23;;
4424;SDS011;2225;53.568;13.266;2022-10-16T01:54:45;5.93;;;2.40;;
4424;SDS011;2225;53.568;13.266;2022-10-16T01:57:14;5.27;;;2.43;;
4424;SDS011;2225;53.568;13.266;2022-10-16T01:59:45;6.67;;;2.53;;
4424;SDS011;2225;53.568;13.266;2022-10-16T02:02:16;5.47;;;2.17;;
4424;SDS011;2225;53.568;13.266;2022-10-16T02:07:57;13.33;;;2.77;;
4424;SDS011;2225;53.568;13.266;2022-10-16T02:10:28;7.07;;;2.30;;
4424;SDS011;2225;53.568;13.266;2022-10-16T02:13:01;8.03;;;3.23;;
4424;SDS011;2225;53.568;13.266;2022-10-16T02:15:40;12.13;;;2.70;;
4424;SDS011;2225;53.568;13.266;2022-10-16T02:18:07;5.23;;;2.17;;
4424;SDS011;2225;53.568;13.266;2022-10-16T02:20:51;8.53;;;2.70;;
4424;SDS011;2225;53.568;13.266;2022-10-16T02:23:27;5.03;;;2.00;;
4424;SDS011;2225;53.568;13.266;2022-10-16T02:26:07;5.70;;;2.10;;
4424;SDS011;2225;53.568;13.266;2022-10-16T02:28:40;6.43;;;2.30;;
4424;SDS011;2225;53.568;13.266;2022-10-16T02:31:12;5.60;;;2.13;;
4424;SDS011;2225;53.568;13.266;2022-10-16T02:33:44;12.57;;;2.47;;
4424;SDS011;2225;53.568;13.266;2022-10-16T02:36:12;5.13;;;2.13;;
4424;SDS011;2225;53.568;13.266;2022-10-16T02:38:39;7.33;;;2.30;;
4424;SDS011;2225;53.568;13.266;2022-10-16T02:41:07;7.17;;;2.80;;
4424;SDS011;2225;53.568;13.266;2022-10-16T02:43:34;13.30;;;3.03;;
4424;SDS011;2225;53.568;13.266;2022-10-16T02:46:01;6.40;;;2.53;;
4424;SDS011;2225;53.568;13.266;2022-10-16T02:48:28;5.80;;;2.57;;
4424;SDS011;2225;53.568;13.266;2022-10-16T02:50:55;6.47;;;2.70;;
4424;SDS011;2225;53.568;13.266;2022-10-16T02:53:23;4.33;;;1.90;;
4424;SDS011;2225;53.568;13.266;2022-10-16T02:55:50;5.53;;;2.40;;
4424;SDS011;2225;53.568;13.266;2022-10-16T02:58:17;6.00;;;2.23;;
4424;SDS011;2225;53.568;13.266;2022-10-16T03:00:44;14.43;;;2.60;;
4424;SDS011;2225;53.568;13.266;2022-10-16T03:03:11;6.07;;;2.40;;
4424;SDS011;2225;53.568;13.266;2022-10-16T03:05:38;5.03;;;2.60;;
4424;SDS011;2225;53.568;13.266;2022-10-16T03:08:05;5.43;;;2.53;;
4424;SDS011;2225;53.568;13.266;2022-10-16T03:10:31;10.43;;;3.00;;
4424;SDS011;2225;53.568;13.266;2022-10-16T03:12:58;5.80;;;2.40;;
4424;SDS011;2225;53.568;13.266;2022-10-16T03:15:25;6.33;;;2.67;;
4424;SDS011;2225;53.568;13.266;2022-10-16T03:17:54;6.20;;;2.80;;
4424;SDS011;2225;53.568;13.266;2022-10-16T03:20:24;6.23;;;2.60;;
4424;SDS011;2225;53.568;13.266;2022-10-16T03:22:52;5.53;;;2.63;;
4424;SDS011;2225;53.568;13.266;2022-10-16T03:25:19;7.13;;;2.60;;
4424;SDS011;2225;53.568;13.266;2022-10-16T03:27:46;6.60;;;2.50;;
4424;SDS011;2225;53.568;13.266;2022-10-16T03:30:13;5.70;;;2.40;;
4424;SDS011;2225;53.568;13.266;2022-10-16T03:32:40;5.33;;;2.50;;
4424;SDS011;2225;53.568;13.266;2022-10-16T03:35:07;6.33;;;2.80;;
4424;SDS011;2225;53.568;13.266;2022-10-16T03:37:34;8.30;;;2.77;;
4424;SDS011;2225;53.568;13.266;2022-10-16T03:40:01;5.43;;;2.43;;
4424;SDS011;2225;53.568;13.266;2022-10-16T03:42:29;8.37;;;2.57;;
4424;SDS011;2225;53.568;13.266;2022-10-16T03:44:56;7.73;;;2.40;;
4424;SDS011;2225;53.568;13.266;2022-10-16T03:47:23;10.83;;;2.50;;
4424;SDS011;2225;53.568;13.266;2022-10-16T03:49:50;7.77;;;2.70;;
4424;SDS011;2225;53.568;13.266;2022-10-16T03:52:17;6.20;;;2.63;;
4424;SDS011;2225;53.568;13.266;2022-10-16T03:54:49;11.90;;;3.50;;
4424;SDS011;2225;53.568;13.266;2022-10-16T03:57:16;8.33;;;2.87;;
4424;SDS011;2225;53.568;13.266;2022-10-16T03:59:43;8.10;;;3.03;;
4424;SDS011;2225;53.568;13.266;2022-10-16T04:02:10;5.80;;;2.90;;
4424;SDS011;2225;53.568;13.266;2022-10-16T04:04:37;5.70;;;2.83;;
4424;SDS011;2225;53.568;13.266;2022-10-16T04:07:04;6.60;;;2.60;;
4424;SDS011;2225;53.568;13.266;2022-10-16T04:09:31;7.47;;;3.13;;
4424;SDS011;2225;53.568;13.266;2022-10-16T04:11:58;13.70;;;3.70;;
4424;SDS011;2225;53.568;13.266;2022-10-16T04:14:25;8.23;;;3.00;;
4424;SDS011;2225;53.568;13.266;2022-10-16T04:16:51;7.07;;;3.27;;
4424;SDS011;2225;53.568;13.266;2022-10-16T04:19:18;5.70;;;2.77;;
4424;SDS011;2225;53.568;13.266;2022-10-16T04:21:45;6.97;;;3.40;;
4424;SDS011;2225;53.568;13.266;2022-10-16T04:24:12;7.23;;;3.20;;
4424;SDS011;2225;53.568;13.266;2022-10-16T04:26:39;6.10;;;2.97;;
4424;SDS011;2225;53.568;13.266;2022-10-16T04:29:06;8.00;;;3.20;;
4424;SDS011;2225;53.568;13.266;2022-10-16T04:31:33;16.20;;;3.40;;
4424;SDS011;2225;53.568;13.266;2022-10-16T04:34:00;6.50;;;3.57;;
4424;SDS011;2225;53.568;13.266;2022-10-16T04:36:27;14.10;;;3.27;;
4424;SDS011;2225;53.568;13.266;2022-10-16T04:38:54;12.33;;;3.23;;
4424;SDS011;2225;53.568;13.266;2022-10-16T04:41:21;8.10;;;3.50;;
4424;SDS011;2225;53.568;13.266;2022-10-16T04:43:48;6.60;;;3.10;;
4424;SDS011;2225;53.568;13.266;2022-10-16T04:46:15;7.80;;;3.03;;
4424;SDS011;2225;53.568;13.266;2022-10-16T04:48:42;11.13;;;4.17;;
4424;SDS011;2225;53.568;13.266;2022-10-16T04:51:09;7.00;;;3.00;;
4424;SDS011;2225;53.568;13.266;2022-10-16T04:53:36;11.70;;;4.20;;
4424;SDS011;2225;53.568;13.266;2022-10-16T04:56:03;5.33;;;2.93;;
4424;SDS011;2225;53.568;13.266;2022-10-16T04:58:30;5.80;;;3.17;;
4424;SDS011;2225;53.568;13.266;2022-10-16T05:00:57;6.60;;;3.60;;
4424;SDS011;2225;53.568;13.266;2022-10-16T05:03:24;6.70;;;3.10;;
4424;SDS011;2225;53.568;13.266;2022-10-16T05:05:51;9.20;;;3.60;;
4424;SDS011;2225;53.568;13.266;2022-10-16T05:08:18;6.70;;;3.23;;
4424;SDS011;2225;53.568;13.266;2022-10-16T05:10:45;5.40;;;3.00;;
4424;SDS011;2225;53.568;13.266;2022-10-16T05:13:12;7.73;;;4.00;;
4424;SDS011;2225;53.568;13.266;2022-10-16T05:15:39;8.33;;;3.10;;
4424;SDS011;2225;53.568;13.266;2022-10-16T05:18:06;6.53;;;3.60;;
4424;SDS011;2225;53.568;13.266;2022-10-16T05:20:33;5.20;;;2.90;;
4424;SDS011;2225;53.568;13.266;2022-10-16T05:22:59;11.33;;;3.67;;
4424;SDS011;2225;53.568;13.266;2022-10-16T05:25:26;12.60;;;3.43;;
4424;SDS011;2225;53.568;13.266;2022-10-16T05:27:53;6.20;;;3.20;;
4424;SDS011;2225;53.568;13.266;2022-10-16T05:30:20;11.40;;;3.00;;
4424;SDS011;2225;53.568;13.266;2022-10-16T05:32:48;8.80;;;2.63;;
4424;SDS011;2225;53.568;13.266;2022-10-16T05:35:17;6.60;;;3.10;;
4424;SDS011;2225;53.568;13.266;2022-10-16T05:37:44;5.43;;;2.80;;
4424;SDS011;2225;53.568;13.266;2022-10-16T05:40:12;8.90;;;3.60;;
4424;SDS011;2225;53.568;13.266;2022-10-16T05:42:40;8.90;;;3.53;;
4424;SDS011;2225;53.568;13.266;2022-10-16T05:45:08;6.77;;;3.50;;
4424;SDS011;2225;53.568;13.266;2022-10-16T05:47:38;5.70;;;2.90;;
4424;SDS011;2225;53.568;13.266;2022-10-16T05:50:05;10.20;;;3.27;;
4424;SDS011;2225;53.568;13.266;2022-10-16T05:52:32;7.97;;;3.23;;
4424;SDS011;2225;53.568;13.266;2022-10-16T05:54:59;8.20;;;3.27;;
4424;SDS011;2225;53.568;13.266;2022-10-16T05:57:26;7.83;;;2.80;;
4424;SDS011;2225;53.568;13.266;2022-10-16T05:59:53;10.23;;;3.10;;
4424;SDS011;2225;53.568;13.266;2022-10-16T06:02:20;6.50;;;2.70;;
4424;SDS011;2225;53.568;13.266;2022-10-16T06:04:47;6.33;;;2.63;;
4424;SDS011;2225;53.568;13.266;2022-10-16T06:07:14;7.17;;;3.23;;
4424;SDS011;2225;53.568;13.266;2022-10-16T06:09:41;6.07;;;2.60;;
4424;SDS011;2225;53.568;13.266;2022-10-16T06:12:08;6.77;;;3.27;;
4424;SDS011;2225;53.568;13.266;2022-10-16T06:14:34;7.90;;;2.80;;
4424;SDS011;2225;53.568;13.266;2022-10-16T06:17:01;8.60;;;3.13;;
4424;SDS011;2225;53.568;13.266;2022-10-16T06:19:28;6.20;;;2.70;;
4424;SDS011;2225;53.568;13.266;2022-10-16T06:21:55;5.60;;;2.80;;
4424;SDS011;2225;53.568;13.266;2022-10-16T06:24:24;8.67;;;2.77;;
4424;SDS011;2225;53.568;13.266;2022-10-16T06:26:51;10.10;;;2.60;;
4424;SDS011;2225;53.568;13.266;2022-10-16T06:29:18;6.43;;;2.77;;
4424;SDS011;2225;53.568;13.266;2022-10-16T06:31:45;9.70;;;2.83;;
4424;SDS011;2225;53.568;13.266;2022-10-16T06:34:12;5.90;;;2.60;;
4424;SDS011;2225;53.568;13.266;2022-10-16T06:36:39;6.10;;;2.57;;
4424;SDS011;2225;53.568;13.266;2022-10-16T06:39:06;4.60;;;2.30;;
4424;SDS011;2225;53.568;13.266;2022-10-16T06:41:33;6.30;;;2.50;;
4424;SDS011;2225;53.568;13.266;2022-10-16T06:44:13;9.30;;;3.33;;
4424;SDS011;2225;53.568;13.266;2022-10-16T06:46:40;6.80;;;2.57;;
4424;SDS011;2225;53.568;13.266;2022-10-16T06:49:07;6.97;;;2.20;;
4424;SDS011;2225;53.568;13.266;2022-10-16T06:51:34;7.00;;;2.70;;
4424;SDS011;2225;53.568;13.266;2022-10-16T06:54:08;6.93;;;2.43;;
4424;SDS011;2225;53.568;13.266;2022-10-16T06:56:35;7.90;;;2.80;;
4424;SDS011;2225;53.568;13.266;2022-10-16T06:59:02;8.90;;;2.23;;
4424;SDS011;2225;53.568;13.266;2022-10-16T07:01:29;5.60;;;2.13;;
4424;SDS011;2225;53.568;13.266;2022-10-16T07:03:57;6.37;;;2.40;;
4424;SDS011;2225;53.568;13.266;2022-10-16T07:06:24;8.50;;;2.40;;
4424;SDS011;2225;53.568;13.266;2022-10-16T07:08:52;14.87;;;2.33;;
4424;SDS011;2225;53.568;13.266;2022-10-16T07:11:20;5.67;;;2.10;;
4424;SDS011;2225;53.568;13.266;2022-10-16T07:13:49;4.73;;;2.10;;
4424;SDS011;2225;53.568;13.266;2022-10-16T07:16:22;8.73;;;2.10;;
4424;SDS011;2225;53.568;13.266;2022-10-16T07:18:53;9.50;;;2.90;;
4424;SDS011;2225;53.568;13.266;2022-10-16T07:21:26;5.17;;;2.20;;
4424;SDS011;2225;53.568;13.266;2022-10-16T07:24:02;6.27;;;2.37;;
4424;SDS011;2225;53.568;13.266;2022-10-16T07:26:32;5.83;;;2.47;;
4424;SDS011;2225;53.568;13.266;2022-10-16T07:29:02;8.20;;;3.50;;
4424;SDS011;2225;53.568;13.266;2022-10-16T07:31:30;11.30;;;2.97;;
4424;SDS011;2225;53.568;13.266;2022-10-16T07:33:58;8.10;;;2.30;;
4424;SDS011;2225;53.568;13.266;2022-10-16T07:36:26;6.40;;;2.43;;
4424;SDS011;2225;53.568;13.266;2022-10-16T07:38:53;6.00;;;2.43;;
4424;SDS011;2225;53.568;13.266;2022-10-16T07:41:25;6.97;;;3.33;;
4424;SDS011;2225;53.568;13.266;2022-10-16T07:43:53;8.93;;;2.80;;
4424;SDS011;2225;53.568;13.266;2022-10-16T07:46:21;6.30;;;2.63;;
4424;SDS011;2225;53.568;13.266;2022-10-16T07:48:49;9.57;;;3.10;;
4424;SDS011;2225;53.568;13.266;2022-10-16T07:51:20;10.10;;;2.97;;
4424;SDS011;2225;53.568;13.266;2022-10-16T07:53:49;9.40;;;2.47;;
4424;SDS011;2225;53.568;13.266;2022-10-16T07:56:17;8.97;;;2.27;;
4424;SDS011;2225;53.568;13.266;2022-10-16T07:58:45;6.20;;;2.57;;
4424;SDS011;2225;53.568;13.266;2022-10-16T08:01:13;15.17;;;7.30;;
4424;SDS011;2225;53.568;13.266;2022-10-16T08:03:42;14.20;;;8.00;;
4424;SDS011;2225;53.568;13.266;2022-10-16T08:06:11;10.50;;;3.83;;
4424;SDS011;2225;53.568;13.266;2022-10-16T08:08:39;9.00;;;3.43;;
4424;SDS011;2225;53.568;13.266;2022-10-16T08:11:06;6.97;;;3.00;;
4424;SDS011;2225;53.568;13.266;2022-10-16T08:13:33;11.47;;;2.30;;
4424;SDS011;2225;53.568;13.266;2022-10-16T08:16:00;8.20;;;2.60;;
4424;SDS011;2225;53.568;13.266;2022-10-16T08:18:29;8.93;;;2.73;;
4424;SDS011;2225;53.568;13.266;2022-10-16T08:20:57;7.80;;;3.03;;
4424;SDS011;2225;53.568;13.266;2022-10-16T08:23:26;9.80;;;3.10;;
4424;SDS011;2225;53.568;13.266;2022-10-16T08:25:54;7.50;;;3.30;;
4424;SDS011;2225;53.568;13.266;2022-10-16T08:28:27;7.00;;;3.80;;
4424;SDS011;2225;53.568;13.266;2022-10-16T08:30:54;9.30;;;3.60;;
4424;SDS011;2225;53.568;13.266;2022-10-16T08:33:22;13.03;;;3.77;;
4424;SDS011;2225;53.568;13.266;2022-10-16T08:35:50;9.30;;;4.23;;
4424;SDS011;2225;53.568;13.266;2022-10-16T08:38:19;7.53;;;3.60;;
4424;SDS011;2225;53.568;13.266;2022-10-16T08:40:47;9.23;;;3.57;;
4424;SDS011;2225;53.568;13.266;2022-10-16T08:43:26;10.53;;;3.67;;
4424;SDS011;2225;53.568;13.266;2022-10-16T08:46:15;7.60;;;3.33;;
4424;SDS011;2225;53.568;13.266;2022-10-16T08:48:51;12.50;;;6.00;;
4424;SDS011;2225;53.568;13.266;2022-10-16T08:51:22;10.80;;;3.93;;
4424;SDS011;2225;53.568;13.266;2022-10-16T08:53:57;13.00;;;3.00;;
4424;SDS011;2225;53.568;13.266;2022-10-16T08:56:37;12.97;;;2.77;;
4424;SDS011;2225;53.568;13.266;2022-10-16T08:59:06;5.70;;;2.20;;
4424;SDS011;2225;53.568;13.266;2022-10-16T09:01:41;5.63;;;2.10;;
4424;SDS011;2225;53.568;13.266;2022-10-16T09:04:32;9.20;;;2.43;;
4424;SDS011;2225;53.568;13.266;2022-10-16T09:07:39;10.07;;;3.67;;
4424;SDS011;2225;53.568;13.266;2022-10-16T09:10:29;7.40;;;2.37;;
4424;SDS011;2225;53.568;13.266;2022-10-16T09:13:26;15.03;;;2.67;;
4424;SDS011;2225;53.568;13.266;2022-10-16T09:16:02;11.43;;;2.10;;
4424;SDS011;2225;53.568;13.266;2022-10-16T09:22:01;6.17;;;2.70;;
4424;SDS011;2225;53.568;13.266;2022-10-16T09:24:42;6.93;;;2.53;;
4424;SDS011;2225;53.568;13.266;2022-10-16T09:27:10;4.70;;;1.73;;
4424;SDS011;2225;53.568;13.266;2022-10-16T09:29:38;6.20;;;2.33;;
4424;SDS011;2225;53.568;13.266;2022-10-16T09:32:11;7.60;;;2.13;;
4424;SDS011;2225;53.568;13.266;2022-10-16T09:34:42;8.90;;;2.40;;
4424;SDS011;2225;53.568;13.266;2022-10-16T09:37:15;7.37;;;2.00;;
4424;SDS011;2225;53.568;13.266;2022-10-16T09:39:52;7.37;;;2.30;;
4424;SDS011;2225;53.568;13.266;2022-10-16T09:42:21;6.33;;;1.83;;
4424;SDS011;2225;53.568;13.266;2022-10-16T09:44:58;8.77;;;2.13;;
4424;SDS011;2225;53.568;13.266;2022-10-16T09:47:26;4.90;;;1.70;;
4424;SDS011;2225;53.568;13.266;2022-10-16T09:50:00;8.80;;;2.27;;
4424;SDS011;2225;53.568;13.266;2022-10-16T09:52:32;15.23;;;1.80;;
4424;SDS011;2225;53.568;13.266;2022-10-16T09:55:01;5.23;;;1.73;;
4424;SDS011;2225;53.568;13.266;2022-10-16T09:57:52;4.77;;;1.57;;
4424;SDS011;2225;53.568;13.266;2022-10-16T10:00:21;5.40;;;1.30;;
4424;SDS011;2225;53.568;13.266;2022-10-16T10:02:50;6.37;;;1.10;;
4424;SDS011;2225;53.568;13.266;2022-10-16T10:05:27;12.50;;;2.20;;
4424;SDS011;2225;53.568;13.266;2022-10-16T10:07:56;5.20;;;1.43;;
4424;SDS011;2225;53.568;13.266;2022-10-16T10:10:30;8.27;;;1.90;;
4424;SDS011;2225;53.568;13.266;2022-10-16T10:12:59;8.50;;;1.83;;
4424;SDS011;2225;53.568;13.266;2022-10-16T10:15:26;9.53;;;1.53;;
4424;SDS011;2225;53.568;13.266;2022-10-16T10:17:59;12.53;;;1.93;;
4424;SDS011;2225;53.568;13.266;2022-10-16T10:20:33;3.60;;;1.10;;
4424;SDS011;2225;53.568;13.266;2022-10-16T10:23:23;6.20;;;1.90;;
4424;SDS011;2225;53.568;13.266;2022-10-16T10:28:45;7.50;;;2.13;;
4424;SDS011;2225;53.568;13.266;2022-10-16T10:31:37;15.50;;;2.30;;
4424;SDS011;2225;53.568;13.266;2022-10-16T10:34:20;8.30;;;1.60;;
4424;SDS011;2225;53.568;13.266;2022-10-16T10:43:37;7.10;;;1.50;;
4424;SDS011;2225;53.568;13.266;2022-10-16T10:46:29;9.23;;;1.23;;
4424;SDS011;2225;53.568;13.266;2022-10-16T10:49:29;7.30;;;1.23;;
4424;SDS011;2225;53.568;13.266;2022-10-16T10:52:34;10.53;;;1.80;;
4424;SDS011;2225;53.568;13.266;2022-10-16T10:58:50;8.40;;;1.47;;
4424;SDS011;2225;53.568;13.266;2022-10-16T11:01:41;6.40;;;1.47;;
4424;SDS011;2225;53.568;13.266;2022-10-16T11:05:00;7.10;;;2.00;;
4424;SDS011;2225;53.568;13.266;2022-10-16T11:07:51;8.90;;;1.73;;
4424;SDS011;2225;53.568;13.266;2022-10-16T11:10:44;4.30;;;1.10;;
4424;SDS011;2225;53.568;13.266;2022-10-16T11:13:38;7.83;;;1.80;;
4424;SDS011;2225;53.568;13.266;2022-10-16T11:16:17;8.63;;;1.63;;
4424;SDS011;2225;53.568;13.266;2022-10-16T11:21:48;8.43;;;1.37;;
4424;SDS011;2225;53.568;13.266;2022-10-16T11:24:22;4.80;;;1.23;;
4424;SDS011;2225;53.568;13.266;2022-10-16T11:27:07;7.77;;;1.53;;
4424;SDS011;2225;53.568;13.266;2022-10-16T11:29:43;4.20;;;0.90;;
4424;SDS011;2225;53.568;13.266;2022-10-16T11:32:30;4.07;;;1.00;;
4424;SDS011;2225;53.568;13.266;2022-10-16T11:35:14;6.00;;;1.20;;
4424;SDS011;2225;53.568;13.266;2022-10-16T11:37:51;4.47;;;1.20;;
4424;SDS011;2225;53.568;13.266;2022-10-16T11:40:29;3.53;;;0.90;;
4424;SDS011;2225;53.568;13.266;2022-10-16T11:43:07;3.47;;;0.87;;
4424;SDS011;2225;53.568;13.266;2022-10-16T11:45:46;7.30;;;1.23;;
4424;SDS011;2225;53.568;13.266;2022-10-16T11:48:29;4.10;;;1.17;;
4424;SDS011;2225;53.568;13.266;2022-10-16T11:51:06;4.87;;;1.37;;
4424;SDS011;2225;53.568;13.266;2022-10-16T11:56:25;6.47;;;1.20;;
4424;SDS011;2225;53.568;13.266;2022-10-16T11:58:58;3.90;;;0.80;;
4424;SDS011;2225;53.568;13.266;2022-10-16T12:01:38;4.30;;;1.13;;
4424;SDS011;2225;53.568;13.266;2022-10-16T12:07:34;10.43;;;1.50;;
4424;SDS011;2225;53.568;13.266;2022-10-16T12:10:22;7.83;;;2.33;;
4424;SDS011;2225;53.568;13.266;2022-10-16T12:12:54;9.00;;;2.00;;
4424;SDS011;2225;53.568;13.266;2022-10-16T12:15:29;5.47;;;1.43;;
4424;SDS011;2225;53.568;13.266;2022-10-16T12:18:22;6.10;;;1.23;;
4424;SDS011;2225;53.568;13.266;2022-10-16T12:20:54;4.90;;;1.40;;
4424;SDS011;2225;53.568;13.266;2022-10-16T12:23:25;6.33;;;1.50;;
4424;SDS011;2225;53.568;13.266;2022-10-16T12:25:56;7.60;;;1.50;;
4424;SDS011;2225;53.568;13.266;2022-10-16T12:28:29;6.83;;;1.10;;
4424;SDS011;2225;53.568;13.266;2022-10-16T12:31:03;7.13;;;1.70;;
4424;SDS011;2225;53.568;13.266;2022-10-16T12:33:33;11.23;;;2.03;;
4424;SDS011;2225;53.568;13.266;2022-10-16T12:36:12;6.90;;;1.60;;
4424;SDS011;2225;53.568;13.266;2022-10-16T12:38:46;10.70;;;1.47;;
4424;SDS011;2225;53.568;13.266;2022-10-16T12:41:28;5.10;;;1.63;;
4424;SDS011;2225;53.568;13.266;2022-10-16T12:44:00;4.97;;;1.20;;
4424;SDS011;2225;53.568;13.266;2022-10-16T12:49:05;3.70;;;1.00;;
4424;SDS011;2225;53.568;13.266;2022-10-16T12:51:39;6.37;;;1.20;;
4424;SDS011;2225;53.568;13.266;2022-10-16T12:57:06;6.03;;;1.30;;
4424;SDS011;2225;53.568;13.266;2022-10-16T12:59:55;7.53;;;1.10;;
4424;SDS011;2225;53.568;13.266;2022-10-16T13:03:03;3.37;;;1.07;;
4424;SDS011;2225;53.568;13.266;2022-10-16T13:06:01;4.10;;;1.10;;
4424;SDS011;2225;53.568;13.266;2022-10-16T13:12:05;6.40;;;1.10;;
4424;SDS011;2225;53.568;13.266;2022-10-16T13:14:52;3.67;;;0.90;;
4424;SDS011;2225;53.568;13.266;2022-10-16T13:25:39;7.43;;;1.07;;
4424;SDS011;2225;53.568;13.266;2022-10-16T13:28:28;4.07;;;1.00;;
4424;SDS011;2225;53.568;13.266;2022-10-16T13:30:59;4.03;;;1.00;;
4424;SDS011;2225;53.568;13.266;2022-10-16T13:33:37;7.53;;;0.97;;
4424;SDS011;2225;53.568;13.266;2022-10-16T13:36:20;5.20;;;1.47;;
4424;SDS011;2225;53.568;13.266;2022-10-16T13:39:00;4.73;;;1.50;;
4424;SDS011;2225;53.568;13.266;2022-10-16T13:41:38;4.70;;;1.17;;
4424;SDS011;2225;53.568;13.266;2022-10-16T13:44:11;6.47;;;1.30;;
4424;SDS011;2225;53.568;13.266;2022-10-16T13:46:57;6.10;;;1.20;;
4424;SDS011;2225;53.568;13.266;2022-10-16T13:49:26;4.43;;;1.10;;
4424;SDS011;2225;53.568;13.266;2022-10-16T13:51:57;5.87;;;1.27;;
4424;SDS011;2225;53.568;13.266;2022-10-16T13:54:26;7.80;;;1.30;;
4424;SDS011;2225;53.568;13.266;2022-10-16T13:56:54;4.10;;;1.10;;
4424;SDS011;2225;53.568;13.266;2022-10-16T13:59:34;7.50;;;1.53;;
4424;SDS011;2225;53.568;13.266;2022-10-16T14:05:01;5.37;;;0.90;;
4424;SDS011;2225;53.568;13.266;2022-10-16T14:07:31;4.53;;;1.10;;
4424;SDS011;2225;53.568;13.266;2022-10-16T14:10:01;5.67;;;1.30;;
4424;SDS011;2225;53.568;13.266;2022-10-16T14:12:34;5.90;;;1.30;;
4424;SDS011;2225;53.568;13.266;2022-10-16T14:15:01;6.40;;;1.00;;
4424;SDS011;2225;53.568;13.266;2022-10-16T14:17:32;4.57;;;1.17;;
4424;SDS011;2225;53.568;13.266;2022-10-16T14:20:03;6.03;;;1.20;;
4424;SDS011;2225;53.568;13.266;2022-10-16T14:25:20;4.90;;;1.10;;
4424;SDS011;2225;53.568;13.266;2022-10-16T14:30:51;6.83;;;1.00;;
4424;SDS011;2225;53.568;13.266;2022-10-16T14:33:30;7.47;;;1.17;;
4424;SDS011;2225;53.568;13.266;2022-10-16T14:36:11;4.03;;;0.93;;
4424;SDS011;2225;53.568;13.266;2022-10-16T14:38:43;5.23;;;1.20;;
4424;SDS011;2225;53.568;13.266;2022-10-16T14:41:24;5.30;;;1.40;;
4424;SDS011;2225;53.568;13.266;2022-10-16T14:43:52;3.70;;;1.00;;
4424;SDS011;2225;53.568;13.266;2022-10-16T14:46:22;9.50;;;1.30;;
4424;SDS011;2225;53.568;13.266;2022-10-16T14:49:02;4.53;;;1.10;;
4424;SDS011;2225;53.568;13.266;2022-10-16T14:51:41;9.03;;;1.50;;
4424;SDS011;2225;53.568;13.266;2022-10-16T14:54:14;10.03;;;1.40;;
4424;SDS011;2225;53.568;13.266;2022-10-16T14:56:45;5.83;;;1.50;;
4424;SDS011;2225;53.568;13.266;2022-10-16T14:59:28;4.60;;;1.27;;
4424;SDS011;2225;53.568;13.266;2022-10-16T15:02:09;8.77;;;1.60;;
4424;SDS011;2225;53.568;13.266;2022-10-16T15:04:53;5.20;;;0.87;;
4424;SDS011;2225;53.568;13.266;2022-10-16T15:07:21;5.10;;;1.13;;
4424;SDS011;2225;53.568;13.266;2022-10-16T15:09:48;4.70;;;1.17;;
4424;SDS011;2225;53.568;13.266;2022-10-16T15:12:16;5.60;;;1.00;;
4424;SDS011;2225;53.568;13.266;2022-10-16T15:14:43;4.90;;;1.40;;
4424;SDS011;2225;53.568;13.266;2022-10-16T15:17:10;21.10;;;1.47;;
4424;SDS011;2225;53.568;13.266;2022-10-16T15:19:39;3.83;;;1.10;;
4424;SDS011;2225;53.568;13.266;2022-10-16T15:22:08;5.23;;;1.20;;
4424;SDS011;2225;53.568;13.266;2022-10-16T15:24:37;11.37;;;1.10;;
4424;SDS011;2225;53.568;13.266;2022-10-16T15:27:04;4.57;;;1.13;;
4424;SDS011;2225;53.568;13.266;2022-10-16T15:29:31;5.77;;;1.13;;
4424;SDS011;2225;53.568;13.266;2022-10-16T15:31:58;4.53;;;1.13;;
4424;SDS011;2225;53.568;13.266;2022-10-16T15:34:25;4.53;;;1.10;;
4424;SDS011;2225;53.568;13.266;2022-10-16T15:36:52;7.27;;;1.20;;
4424;SDS011;2225;53.568;13.266;2022-10-16T15:39:21;5.20;;;1.73;;
4424;SDS011;2225;53.568;13.266;2022-10-16T15:41:48;5.33;;;1.73;;
4424;SDS011;2225;53.568;13.266;2022-10-16T15:44:17;4.57;;;1.70;;
4424;SDS011;2225;53.568;13.266;2022-10-16T15:46:44;10.13;;;2.40;;
4424;SDS011;2225;53.568;13.266;2022-10-16T15:49:12;7.30;;;2.20;;
4424;SDS011;2225;53.568;13.266;2022-10-16T15:51:39;7.93;;;2.40;;
4424;SDS011;2225;53.568;13.266;2022-10-16T15:54:08;6.60;;;2.43;;
4424;SDS011;2225;53.568;13.266;2022-10-16T15:56:35;8.13;;;2.77;;
4424;SDS011;2225;53.568;13.266;2022-10-16T15:59:03;7.70;;;2.43;;
4424;SDS011;2225;53.568;13.266;2022-10-16T16:01:32;6.20;;;2.53;;
4424;SDS011;2225;53.568;13.266;2022-10-16T16:04:00;8.60;;;2.83;;
4424;SDS011;2225;53.568;13.266;2022-10-16T16:06:45;8.13;;;3.13;;
4424;SDS011;2225;53.568;13.266;2022-10-16T16:09:13;10.07;;;3.70;;
4424;SDS011;2225;53.568;13.266;2022-10-16T16:11:40;21.83;;;3.23;;
4424;SDS011;2225;53.568;13.266;2022-10-16T16:14:10;12.73;;;3.70;;
4424;SDS011;2225;53.568;13.266;2022-10-16T16:16:39;7.10;;;3.33;;
4424;SDS011;2225;53.568;13.266;2022-10-16T16:19:07;10.10;;;3.40;;
4424;SDS011;2225;53.568;13.266;2022-10-16T16:21:37;9.37;;;3.57;;
4424;SDS011;2225;53.568;13.266;2022-10-16T16:24:04;9.07;;;4.03;;
4424;SDS011;2225;53.568;13.266;2022-10-16T16:26:35;11.70;;;4.00;;
4424;SDS011;2225;53.568;13.266;2022-10-16T16:29:05;8.40;;;3.37;;
4424;SDS011;2225;53.568;13.266;2022-10-16T16:31:33;13.07;;;3.90;;